createdAt,value
2018-07-15T00:01:47.993Z,17.90
2018-07-15T00:04:15.345Z,17.90
2018-07-15T00:09:09.982Z,17.90
2018-07-15T00:14:04.712Z,17.90
2018-07-15T00:16:31.909Z,18.10
2018-07-15T00:18:59.352Z,18.10
2018-07-15T00:23:53.854Z,18.10
2018-07-15T00:26:21.123Z,18.10
2018-07-15T00:28:48.552Z,18.10
2018-07-15T00:31:15.945Z,18.10
2018-07-15T00:33:43.288Z,18.10
2018-07-15T00:36:10.860Z,18.10
2018-07-15T00:38:38.161Z,18.10
2018-07-15T00:41:05.522Z,18.10
2018-07-15T00:43:32.844Z,18.00
2018-07-15T00:46:00.166Z,18.10
2018-07-15T00:48:27.522Z,18.10
2018-07-15T00:50:54.826Z,18.20
2018-07-15T00:55:49.431Z,18.20
2018-07-15T00:58:17.231Z,18.20
2018-07-15T01:00:50.144Z,18.30
2018-07-15T01:05:44.778Z,18.30
2018-07-15T01:08:12.073Z,18.30
2018-07-15T01:10:39.376Z,18.30
2018-07-15T01:13:06.739Z,18.30
2018-07-15T01:15:33.993Z,18.20
2018-07-15T01:18:01.280Z,18.20
2018-07-15T01:20:28.659Z,18.10
2018-07-15T01:22:55.912Z,18.10
2018-07-15T01:25:23.174Z,18.00
2018-07-15T01:27:50.440Z,17.90
2018-07-15T01:30:17.712Z,18.00
2018-07-15T01:32:45.130Z,17.90
2018-07-15T01:35:12.377Z,17.80
2018-07-15T01:40:06.942Z,17.90
2018-07-15T01:42:34.212Z,17.80
2018-07-15T01:45:01.469Z,17.80
2018-07-15T01:47:28.783Z,17.70
2018-07-15T01:49:56.060Z,17.70
2018-07-15T01:52:23.331Z,17.60
2018-07-15T01:54:50.620Z,17.60
2018-07-15T01:57:17.908Z,17.50
2018-07-15T01:59:45.175Z,17.40
2018-07-15T02:02:12.512Z,17.30
2018-07-15T02:04:39.775Z,17.30
2018-07-15T02:07:07.158Z,17.30
2018-07-15T02:09:34.504Z,17.30
2018-07-15T02:12:01.801Z,17.30
2018-07-15T02:14:29.081Z,17.20
2018-07-15T02:19:23.620Z,17.20
2018-07-15T02:21:50.928Z,17.20
2018-07-15T02:26:45.518Z,17.20
2018-07-15T02:29:12.817Z,17.20
2018-07-15T02:31:40.093Z,17.10
2018-07-15T02:34:08.313Z,17.00
2018-07-15T02:36:35.748Z,17.00
2018-07-15T02:39:04.215Z,16.90
2018-07-15T02:41:31.486Z,16.90
2018-07-15T02:43:58.786Z,16.80
2018-07-15T02:51:20.653Z,16.60
2018-07-15T02:53:47.924Z,16.60
2018-07-15T02:56:15.197Z,16.60
2018-07-15T03:01:09.775Z,16.60
2018-07-15T03:03:37.073Z,16.50
2018-07-15T03:06:04.403Z,16.60
2018-07-15T03:08:31.658Z,16.60
2018-07-15T03:10:58.916Z,16.60
2018-07-15T03:13:26.169Z,16.50
2018-07-15T03:18:20.678Z,16.40
2018-07-15T03:20:47.962Z,16.40
2018-07-15T03:23:15.243Z,16.40
2018-07-15T03:25:42.629Z,16.40
2018-07-15T03:28:09.896Z,16.40
2018-07-15T03:30:37.128Z,16.40
2018-07-15T03:35:31.656Z,16.30
2018-07-15T03:37:58.923Z,16.30
2018-07-15T03:40:26.204Z,16.30
2018-07-15T03:42:53.534Z,16.20
2018-07-15T03:45:20.888Z,16.30
2018-07-15T03:47:48.157Z,16.30
2018-07-15T03:50:15.427Z,16.30
2018-07-15T03:52:42.713Z,16.30
2018-07-15T03:57:37.213Z,16.30
2018-07-15T04:00:04.555Z,16.30
2018-07-15T04:02:31.854Z,16.20
2018-07-15T04:04:59.123Z,16.20
2018-07-15T04:07:26.410Z,16.20
2018-07-15T04:09:53.651Z,16.30
2018-07-15T04:12:20.909Z,16.20
2018-07-15T04:14:48.160Z,16.20
2018-07-15T04:17:15.413Z,16.30
2018-07-15T04:19:42.679Z,16.30
2018-07-15T04:22:09.915Z,16.30
2018-07-15T04:24:37.176Z,16.40
2018-07-15T04:29:31.697Z,16.40
2018-07-15T04:31:59.058Z,16.40
2018-07-15T04:34:26.284Z,16.50
2018-07-15T04:36:53.572Z,16.60
2018-07-15T04:39:20.860Z,16.60
2018-07-15T04:41:48.151Z,16.60
2018-07-15T04:44:15.451Z,16.70
2018-07-15T04:46:42.749Z,16.90
2018-07-15T04:49:10.075Z,17.80
2018-07-15T04:51:37.429Z,19.30
2018-07-15T04:54:04.874Z,20.70
2018-07-15T04:56:32.152Z,21.70
2018-07-15T04:58:59.441Z,22.40
2018-07-15T05:01:26.755Z,23.00
2018-07-15T05:03:54.039Z,22.90
2018-07-15T05:08:48.596Z,21.70
2018-07-15T05:11:15.931Z,21.30
2018-07-15T05:13:43.202Z,21.10
2018-07-15T05:18:37.812Z,20.60
2018-07-15T05:21:05.288Z,20.40
2018-07-15T05:23:32.591Z,20.30
2018-07-15T05:25:59.929Z,20.20
2018-07-15T05:28:27.195Z,20.10
2018-07-15T05:30:54.457Z,20.10
2018-07-15T05:33:21.898Z,20.10
2018-07-15T05:35:49.360Z,20.10
2018-07-15T05:38:16.711Z,20.20
2018-07-15T05:40:44.113Z,20.20
2018-07-15T05:43:11.366Z,20.20
2018-07-15T05:45:38.696Z,20.30
2018-07-15T05:48:06.081Z,20.30
2018-07-15T05:50:33.357Z,20.30
2018-07-15T05:53:00.637Z,20.30
2018-07-15T05:55:27.984Z,20.40
2018-07-15T05:57:55.292Z,20.40
2018-07-15T06:00:22.616Z,20.40
2018-07-15T06:02:49.915Z,20.50
2018-07-15T06:05:17.160Z,20.50
2018-07-15T06:07:44.494Z,20.50
2018-07-15T06:10:11.745Z,20.30
2018-07-15T06:12:38.990Z,20.30
2018-07-15T06:15:06.393Z,20.30
2018-07-15T06:17:33.783Z,20.30
2018-07-15T06:20:01.065Z,20.30
2018-07-15T06:22:28.365Z,20.30
2018-07-15T06:24:55.635Z,20.30
2018-07-15T06:29:50.137Z,20.30
2018-07-15T06:32:17.416Z,20.40
2018-07-15T06:34:44.644Z,20.40
2018-07-15T06:37:11.972Z,20.50
2018-07-15T06:39:39.177Z,20.40
2018-07-15T06:42:06.509Z,20.50
2018-07-15T06:47:01.205Z,20.50
2018-07-15T06:49:28.528Z,20.70
2018-07-15T06:51:55.808Z,20.80
2018-07-15T06:54:23.152Z,20.90
2018-07-15T06:56:50.484Z,20.90
2018-07-15T06:59:18.165Z,21.00
2018-07-15T07:01:45.487Z,21.00
2018-07-15T07:04:12.798Z,21.00
2018-07-15T07:06:40.055Z,21.00
2018-07-15T07:09:07.789Z,21.00
2018-07-15T07:11:35.976Z,21.00
2018-07-15T07:14:03.672Z,21.10
2018-07-15T07:16:31.001Z,21.00
2018-07-15T07:18:58.367Z,21.10
2018-07-15T07:21:25.734Z,21.20
2018-07-15T07:23:52.979Z,21.30
2018-07-15T07:26:20.295Z,21.30
2018-07-15T07:28:47.767Z,21.40
2018-07-15T07:31:15.060Z,21.40
2018-07-15T07:33:42.346Z,21.50
2018-07-15T07:38:36.995Z,21.40
2018-07-15T07:41:04.301Z,21.50
2018-07-15T07:43:31.567Z,21.60
2018-07-15T07:45:58.845Z,21.70
2018-07-15T07:48:26.099Z,21.80
2018-07-15T07:50:53.408Z,21.90
2018-07-15T07:53:20.687Z,22.00
2018-07-15T07:55:48.093Z,22.00
2018-07-15T07:58:15.361Z,22.00
2018-07-15T08:00:42.668Z,22.00
2018-07-15T08:03:09.956Z,22.00
2018-07-15T08:05:37.249Z,22.10
2018-07-15T08:08:04.535Z,22.20
2018-07-15T08:10:31.855Z,22.30
2018-07-15T08:12:59.145Z,22.30
2018-07-15T08:15:26.456Z,22.30
2018-07-15T08:17:53.799Z,22.40
2018-07-15T08:20:21.084Z,22.50
2018-07-15T08:22:48.487Z,22.60
2018-07-15T08:25:15.841Z,22.70
2018-07-15T08:30:22.005Z,22.70
2018-07-15T08:32:49.338Z,22.80
2018-07-15T08:35:16.588Z,22.90
2018-07-15T08:37:43.869Z,22.90
2018-07-15T08:40:11.176Z,23.00
2018-07-15T08:42:38.515Z,23.00
2018-07-15T08:45:06.702Z,23.00
2018-07-15T08:47:34.006Z,23.10
2018-07-15T08:50:01.302Z,23.20
2018-07-15T08:54:56.328Z,23.40
2018-07-15T08:57:23.561Z,23.40
2018-07-15T08:59:50.808Z,23.50
2018-07-15T09:02:18.253Z,23.60
2018-07-15T09:04:45.510Z,23.60
2018-07-15T09:09:40.165Z,23.90
2018-07-15T09:12:07.493Z,23.90
2018-07-15T09:17:02.164Z,24.10
2018-07-15T09:19:29.504Z,24.10
2018-07-15T09:24:24.130Z,24.10
2018-07-15T09:26:51.419Z,24.10
2018-07-15T09:29:18.721Z,24.20
2018-07-15T09:31:46.039Z,24.20
2018-07-15T09:34:13.403Z,24.30
2018-07-15T09:39:08.191Z,24.30
2018-07-15T09:41:35.513Z,24.40
2018-07-15T09:46:30.256Z,24.50
2018-07-15T09:48:58.423Z,24.60
2018-07-15T09:51:25.984Z,24.60
2018-07-15T09:53:53.412Z,24.70
2018-07-15T09:56:20.688Z,24.80
2018-07-15T09:58:48.438Z,24.80
2018-07-15T10:01:15.748Z,24.90
2018-07-15T10:03:43.004Z,25.00
2018-07-15T10:06:10.303Z,25.10
2018-07-15T10:08:37.616Z,25.20
2018-07-15T10:11:04.906Z,25.30
2018-07-15T10:13:32.173Z,25.30
2018-07-15T10:15:59.428Z,25.20
2018-07-15T10:18:26.687Z,25.30
2018-07-15T10:20:53.917Z,25.20
2018-07-15T10:23:21.195Z,25.20
2018-07-15T10:25:48.445Z,25.20
2018-07-15T10:28:15.685Z,25.10
2018-07-15T10:30:42.953Z,25.10
2018-07-15T10:33:10.339Z,25.00
2018-07-15T10:35:37.554Z,24.90
2018-07-15T10:38:05.043Z,25.00
2018-07-15T10:40:32.347Z,25.10
2018-07-15T10:42:59.645Z,25.10
2018-07-15T10:45:26.954Z,25.20
2018-07-15T10:47:54.195Z,25.30
2018-07-15T10:50:21.432Z,25.40
2018-07-15T10:52:48.718Z,25.40
2018-07-15T10:55:15.934Z,25.40
2018-07-15T10:57:43.187Z,25.50
2018-07-15T11:00:10.512Z,25.50
2018-07-15T11:02:37.797Z,25.60
2018-07-15T11:05:06.005Z,25.50
2018-07-15T11:07:33.761Z,25.60
2018-07-15T11:10:01.109Z,25.60
2018-07-15T11:12:28.718Z,25.60
2018-07-15T11:14:59.635Z,25.60
2018-07-15T11:17:27.394Z,25.70
2018-07-15T11:19:55.024Z,25.80
2018-07-15T11:22:22.373Z,25.90
2018-07-15T11:24:49.690Z,26.00
2018-07-15T11:27:16.997Z,25.90
2018-07-15T11:29:44.272Z,26.10
2018-07-15T11:32:11.619Z,26.10
2018-07-15T11:34:38.900Z,26.10
2018-07-15T11:37:06.188Z,26.10
2018-07-15T11:39:33.458Z,25.90
2018-07-15T11:42:00.720Z,25.80
2018-07-15T11:44:27.999Z,25.70
2018-07-15T11:46:55.277Z,25.60
2018-07-15T11:51:49.818Z,25.40
2018-07-15T11:54:17.194Z,25.30
2018-07-15T11:56:44.470Z,25.30
2018-07-15T11:59:11.748Z,25.30
2018-07-15T12:01:39.067Z,25.30
2018-07-15T12:04:06.304Z,25.30
2018-07-15T12:06:33.629Z,25.30
2018-07-15T12:09:00.953Z,25.30
2018-07-15T12:11:28.220Z,25.30
2018-07-15T12:13:55.514Z,25.30
2018-07-15T12:16:22.779Z,25.20
2018-07-15T12:18:50.105Z,25.20
2018-07-15T12:21:17.377Z,25.20
2018-07-15T12:23:44.776Z,25.20
2018-07-15T12:26:12.105Z,25.30
2018-07-15T12:28:39.373Z,25.30
2018-07-15T12:31:06.684Z,25.40
2018-07-15T12:33:33.993Z,25.50
2018-07-15T12:36:01.318Z,25.60
2018-07-15T12:38:28.637Z,25.60
2018-07-15T12:40:55.892Z,25.90
2018-07-15T12:43:23.377Z,26.10
2018-07-15T12:45:50.646Z,26.30
2018-07-15T12:48:18.064Z,26.30
2018-07-15T12:50:45.372Z,26.30
2018-07-15T12:53:12.679Z,26.30
2018-07-15T12:55:39.948Z,26.30
2018-07-15T12:58:07.317Z,26.20
2018-07-15T13:00:34.661Z,26.30
2018-07-15T13:05:29.270Z,26.10
2018-07-15T13:07:56.566Z,26.00
2018-07-15T13:15:18.487Z,26.00
2018-07-15T13:17:45.780Z,26.00
2018-07-15T13:20:13.062Z,25.80
2018-07-15T13:22:40.362Z,25.20
2018-07-15T13:30:02.216Z,23.50
2018-07-15T13:32:29.534Z,23.20
2018-07-15T13:37:24.258Z,22.60
2018-07-15T13:39:51.586Z,22.40
2018-07-15T13:42:18.889Z,22.40
2018-07-15T13:44:46.864Z,22.40
2018-07-15T13:47:14.097Z,22.50
2018-07-15T13:49:41.312Z,22.60
2018-07-15T13:52:08.662Z,22.70
2018-07-15T13:54:35.928Z,22.60
2018-07-15T13:57:03.192Z,22.70
2018-07-15T13:59:30.440Z,22.70
2018-07-15T14:01:57.740Z,22.70
2018-07-15T14:04:25.064Z,22.70
2018-07-15T14:06:52.701Z,22.80
2018-07-15T14:09:20.004Z,22.70
2018-07-15T14:11:48.255Z,22.70
2018-07-15T14:14:15.517Z,22.60
2018-07-15T14:16:42.837Z,22.50
2018-07-15T14:19:10.089Z,22.50
2018-07-15T14:21:37.401Z,22.40
2018-07-15T14:24:04.753Z,22.50
2018-07-15T14:26:32.100Z,22.50
2018-07-15T14:28:59.408Z,22.50
2018-07-15T14:33:54.112Z,22.50
2018-07-15T14:36:21.481Z,22.60
2018-07-15T14:38:48.746Z,22.50
2018-07-15T14:41:15.981Z,22.50
2018-07-15T14:43:43.311Z,22.50
2018-07-15T14:46:10.591Z,22.30
2018-07-15T14:48:37.871Z,22.30
2018-07-15T14:51:05.337Z,22.20
2018-07-15T14:53:32.584Z,22.10
2018-07-15T14:55:59.882Z,21.90
2018-07-15T14:58:27.135Z,21.60
2018-07-15T15:00:54.387Z,21.40
2018-07-15T15:03:21.693Z,21.20
2018-07-15T15:05:48.958Z,21.20
2018-07-15T15:08:16.280Z,21.20
2018-07-15T15:10:43.564Z,21.20
2018-07-15T15:13:10.896Z,21.20
2018-07-15T15:15:38.132Z,21.20
2018-07-15T15:18:05.452Z,21.20
2018-07-15T15:20:32.705Z,21.20
2018-07-15T15:22:59.949Z,21.10
2018-07-15T15:25:27.273Z,21.20
2018-07-15T15:27:54.567Z,21.10
2018-07-15T15:30:21.860Z,21.20
2018-07-15T15:32:49.183Z,21.00
2018-07-15T15:35:16.451Z,21.00
2018-07-15T15:37:43.860Z,20.90
2018-07-15T15:40:11.086Z,20.90
2018-07-15T15:42:38.343Z,21.00
2018-07-15T15:45:05.732Z,21.00
2018-07-15T15:47:33.238Z,21.10
2018-07-15T15:50:00.476Z,21.00
2018-07-15T15:52:27.794Z,21.00
2018-07-15T15:54:55.060Z,21.00
2018-07-15T15:57:22.381Z,21.00
2018-07-15T15:59:49.659Z,21.00
2018-07-15T16:02:16.997Z,21.00
2018-07-15T16:04:44.277Z,21.00
2018-07-15T16:07:11.518Z,21.00
2018-07-15T16:09:38.761Z,21.00
2018-07-15T16:12:06.023Z,21.00
2018-07-15T16:14:33.270Z,21.10
2018-07-15T16:17:00.520Z,21.10
2018-07-15T16:19:27.845Z,21.10
2018-07-15T16:21:55.102Z,21.20
2018-07-15T16:24:22.359Z,21.20
2018-07-15T16:26:49.624Z,21.20
2018-07-15T16:29:16.929Z,21.20
2018-07-15T16:31:44.201Z,21.20
2018-07-15T16:34:12.422Z,21.20
2018-07-15T16:36:39.636Z,21.10
2018-07-15T16:39:07.136Z,21.10
2018-07-15T16:41:34.389Z,21.10
2018-07-15T16:46:28.934Z,21.20
2018-07-15T16:48:56.247Z,21.20
2018-07-15T16:51:23.482Z,21.00
2018-07-15T16:53:50.719Z,21.20
2018-07-15T16:56:18.124Z,21.10
2018-07-15T16:58:45.235Z,21.10
2018-07-15T17:01:12.473Z,21.10
2018-07-15T17:03:39.746Z,21.10
2018-07-15T17:06:06.992Z,21.10
2018-07-15T17:08:34.225Z,21.20
2018-07-15T17:11:01.471Z,21.20
2018-07-15T17:15:55.977Z,21.30
2018-07-15T17:18:23.222Z,21.20
2018-07-15T17:20:50.468Z,21.20
2018-07-15T17:23:17.720Z,21.30
2018-07-15T17:25:44.970Z,21.30
2018-07-15T17:28:12.263Z,21.30
2018-07-15T17:30:39.568Z,21.30
2018-07-15T17:33:06.794Z,21.30
2018-07-15T17:35:34.073Z,21.40
2018-07-15T17:38:01.363Z,21.40
2018-07-15T17:40:28.747Z,21.40
2018-07-15T17:42:55.956Z,21.30
2018-07-15T17:45:23.267Z,21.40
2018-07-15T17:47:50.512Z,21.40
2018-07-15T17:50:17.821Z,21.40
2018-07-15T17:52:45.088Z,21.40
2018-07-15T17:55:12.352Z,21.50
2018-07-15T18:00:07.893Z,21.40
2018-07-15T18:02:35.155Z,21.40
2018-07-15T18:05:03.307Z,21.20
2018-07-15T18:07:30.586Z,21.20
2018-07-15T18:09:58.479Z,21.10
2018-07-15T18:12:25.723Z,21.10
2018-07-15T18:14:52.952Z,20.90
2018-07-15T18:17:20.195Z,21.00
2018-07-15T18:19:47.481Z,21.00
2018-07-15T18:22:14.809Z,21.00
2018-07-15T18:24:42.218Z,21.00
2018-07-15T18:27:09.489Z,21.00
2018-07-15T18:29:36.784Z,20.90
2018-07-15T18:32:04.016Z,21.00
2018-07-15T18:34:31.249Z,20.90
2018-07-15T18:36:58.497Z,20.90
2018-07-15T18:39:25.715Z,20.80
2018-07-15T18:41:52.948Z,20.70
2018-07-15T18:46:48.053Z,20.70
2018-07-15T18:49:15.292Z,20.60
2018-07-15T18:51:42.540Z,20.70
2018-07-15T18:54:09.779Z,20.70
2018-07-15T18:56:37.209Z,20.70
2018-07-15T18:59:04.496Z,20.70
2018-07-15T19:01:31.745Z,20.60
2018-07-15T19:03:59.016Z,20.60
2018-07-15T19:06:26.348Z,20.50
2018-07-15T19:08:53.617Z,20.50
2018-07-15T19:11:21.021Z,20.50
2018-07-15T19:13:48.316Z,20.50
2018-07-15T19:18:43.012Z,20.50
2018-07-15T19:21:10.418Z,20.40
2018-07-15T19:23:37.680Z,20.30
2018-07-15T19:26:04.978Z,20.30
2018-07-15T19:28:32.267Z,20.20
2018-07-15T19:30:59.662Z,20.30
2018-07-15T19:33:27.004Z,20.20
2018-07-15T19:35:54.273Z,20.20
2018-07-15T19:38:21.524Z,20.20
2018-07-15T19:40:48.882Z,20.10
2018-07-15T19:43:16.279Z,20.00
2018-07-15T19:45:43.564Z,20.10
2018-07-15T19:48:10.840Z,20.10
2018-07-15T19:50:38.208Z,20.20
2018-07-15T19:53:05.510Z,20.10
2018-07-15T19:55:32.860Z,20.20
2018-07-15T19:58:00.157Z,20.10
2018-07-15T20:00:27.598Z,20.10
2018-07-15T20:05:22.346Z,20.00
2018-07-15T20:07:49.643Z,19.90
2018-07-15T20:10:16.985Z,19.80
2018-07-15T20:12:45.035Z,19.90
2018-07-15T20:15:12.429Z,19.90
2018-07-15T20:17:39.733Z,19.90
2018-07-15T20:20:08.495Z,19.90
2018-07-15T20:22:35.772Z,19.80
2018-07-15T20:25:03.256Z,19.80
2018-07-15T20:27:30.629Z,19.70
2018-07-15T20:29:57.922Z,19.60
2018-07-15T20:32:25.183Z,19.20
2018-07-15T20:34:52.545Z,18.90
2018-07-15T20:37:19.889Z,19.00
2018-07-15T20:39:47.343Z,19.10
2018-07-15T20:42:14.675Z,19.30
2018-07-15T20:47:09.357Z,19.10
2018-07-15T20:49:36.767Z,19.10
2018-07-15T20:52:04.060Z,19.10
2018-07-15T20:59:26.092Z,19.30
2018-07-15T21:01:53.388Z,19.20
2018-07-15T21:04:20.690Z,19.30
2018-07-15T21:09:15.409Z,19.30
2018-07-15T21:11:42.755Z,19.30
2018-07-15T21:14:10.014Z,19.40
2018-07-15T21:16:37.497Z,19.40
2018-07-15T21:19:04.922Z,19.30
2018-07-15T21:21:32.131Z,19.30
2018-07-15T21:23:59.549Z,19.20
2018-07-15T21:26:26.846Z,19.10
2018-07-15T21:28:54.143Z,19.10
2018-07-15T21:31:21.602Z,19.10
2018-07-15T21:36:16.072Z,19.20
2018-07-15T21:41:10.632Z,19.10
2018-07-15T21:43:37.875Z,19.00
2018-07-15T21:46:05.150Z,18.90
2018-07-15T21:48:32.537Z,18.90
2018-07-15T21:50:59.794Z,18.90
2018-07-15T21:53:27.053Z,18.90
2018-07-15T21:55:54.351Z,18.90
2018-07-15T21:58:21.599Z,19.00
2018-07-15T22:00:48.877Z,19.00
2018-07-15T22:03:16.129Z,18.90
2018-07-15T22:08:22.345Z,18.70
2018-07-15T22:10:49.628Z,18.80
2018-07-15T22:13:16.888Z,18.80
2018-07-15T22:15:44.125Z,18.80
2018-07-15T22:18:11.428Z,18.90
2018-07-15T22:20:38.730Z,18.90
2018-07-15T22:23:06.615Z,18.90
2018-07-15T22:25:33.874Z,18.90
2018-07-15T22:32:56.141Z,18.70
2018-07-15T22:35:23.368Z,18.70
2018-07-15T22:37:50.602Z,18.60
2018-07-15T22:40:17.868Z,18.60
2018-07-15T22:45:12.401Z,18.70
2018-07-15T22:50:07.160Z,18.60
2018-07-15T22:52:34.407Z,18.60
2018-07-15T22:57:28.933Z,18.60
2018-07-15T22:59:56.172Z,18.60
2018-07-15T23:02:23.441Z,18.60
2018-07-15T23:06:00.195Z,18.60
2018-07-15T23:08:28.772Z,18.60
2018-07-15T23:10:56.029Z,18.50
2018-07-15T23:13:23.336Z,18.40
2018-07-15T23:15:50.782Z,18.40
2018-07-15T23:18:18.017Z,18.40
2018-07-15T23:20:46.058Z,18.40
2018-07-15T23:23:13.707Z,18.40
2018-07-15T23:28:09.161Z,18.50
2018-07-15T23:30:37.248Z,18.40
2018-07-15T23:33:05.032Z,18.30
2018-07-15T23:35:32.435Z,18.30
2018-07-15T23:37:59.756Z,18.30
2018-07-15T23:40:27.024Z,18.30
2018-07-15T23:42:55.122Z,18.30
2018-07-15T23:45:23.206Z,18.20
2018-07-15T23:47:50.478Z,18.20
2018-07-15T23:50:17.691Z,18.20
2018-07-15T23:52:44.993Z,18.10
2018-07-15T23:55:12.257Z,18.10
2018-07-15T23:57:39.531Z,18.00
